createdAt,value
2023-02-12T00:00:45.001Z,86.95
2023-02-12T00:06:08.484Z,86.44
2023-02-12T00:11:30.368Z,87.72
2023-02-12T00:16:52.197Z,87.07
2023-02-12T00:22:14.068Z,86.82
2023-02-12T00:27:36.156Z,86.74
2023-02-12T00:32:58.024Z,87.13
2023-02-12T00:38:19.906Z,85.93
2023-02-12T00:43:41.986Z,84.59
2023-02-12T00:49:03.898Z,83.40
2023-02-12T00:54:25.741Z,84.40
2023-02-12T00:59:47.598Z,84.04
2023-02-12T01:05:09.592Z,84.75
2023-02-12T01:10:31.984Z,84.21
2023-02-12T01:16:07.059Z,83.52
2023-02-12T01:21:31.821Z,83.91
2023-02-12T01:26:53.648Z,83.77
2023-02-12T01:32:15.535Z,84.04
2023-02-12T01:37:38.642Z,83.65
2023-02-12T01:43:02.030Z,83.47
2023-02-12T01:48:27.230Z,83.56
2023-02-12T01:53:53.548Z,83.47
2023-02-12T01:59:16.964Z,83.62
2023-02-12T02:04:43.961Z,82.85
2023-02-12T02:10:06.694Z,82.69
2023-02-12T02:15:31.061Z,82.44
2023-02-12T02:21:13.049Z,82.04
2023-02-12T02:26:43.677Z,81.59
2023-02-12T02:32:15.310Z,80.02
2023-02-12T02:37:45.678Z,80.55
2023-02-12T02:43:15.366Z,79.96
2023-02-12T02:48:43.881Z,79.97
2023-02-12T02:54:13.494Z,80.58
2023-02-12T02:59:43.324Z,79.21
2023-02-12T03:05:19.711Z,78.91
2023-02-12T03:10:44.643Z,78.22
2023-02-12T03:16:12.870Z,79.19
2023-02-12T03:21:44.667Z,78.51
2023-02-12T03:27:11.726Z,78.53
2023-02-12T03:33:01.344Z,78.06
2023-02-12T03:38:41.469Z,78.35
2023-02-12T03:44:16.209Z,78.10
2023-02-12T03:50:12.047Z,78.53
2023-02-12T03:55:40.420Z,78.71
2023-02-12T04:01:03.981Z,78.53
2023-02-12T04:06:29.009Z,79.22
2023-02-12T04:12:07.225Z,79.07
2023-02-12T04:17:56.855Z,77.82
2023-02-12T04:23:33.877Z,78.71
2023-02-12T04:29:11.309Z,77.45
2023-02-12T04:34:39.933Z,77.69
2023-02-12T04:40:06.235Z,78.14
2023-02-12T04:45:31.003Z,78.02
2023-02-12T04:50:52.864Z,78.79
2023-02-12T04:56:15.263Z,77.97
2023-02-12T05:01:38.769Z,78.81
2023-02-12T05:07:00.690Z,78.20
2023-02-12T05:12:22.590Z,77.82
2023-02-12T05:17:44.461Z,77.62
2023-02-12T05:23:06.307Z,77.41
2023-02-12T05:28:29.080Z,77.83
2023-02-12T05:33:51.193Z,77.90
2023-02-12T05:39:13.022Z,77.90
2023-02-12T05:44:34.893Z,78.05
2023-02-12T05:49:56.754Z,77.10
2023-02-12T05:55:18.718Z,77.47
2023-02-12T06:00:40.754Z,77.19
2023-02-12T06:06:02.600Z,77.31
2023-02-12T06:11:24.919Z,77.03
2023-02-12T06:16:48.853Z,75.99
2023-02-12T06:22:10.722Z,75.60
2023-02-12T06:27:32.550Z,74.95
2023-02-12T06:32:54.451Z,73.96
2023-02-12T06:38:16.489Z,73.97
2023-02-12T06:43:38.417Z,70.39
2023-02-12T06:49:01.014Z,49.68
2023-02-12T06:54:22.872Z,39.96
2023-02-12T06:59:44.714Z,36.46
2023-02-12T07:05:06.658Z,38.21
2023-02-12T07:10:28.494Z,40.84
2023-02-12T07:15:50.464Z,49.23
2023-02-12T07:21:14.377Z,50.81
2023-02-12T07:26:36.234Z,50.76
2023-02-12T07:31:58.165Z,48.78
2023-02-12T07:37:20.095Z,39.03
2023-02-12T07:42:41.960Z,31.48
2023-02-12T07:48:03.984Z,30.87
2023-02-12T07:53:25.872Z,28.64
2023-02-12T07:58:50.096Z,26.67
2023-02-12T08:04:14.643Z,24.48
2023-02-12T08:09:36.525Z,25.65
2023-02-12T08:14:58.362Z,22.50
2023-02-12T08:20:20.199Z,22.86
2023-02-12T08:25:42.056Z,24.00
2023-02-12T08:31:06.916Z,23.46
2023-02-12T08:36:38.229Z,22.06
2023-02-12T08:42:00.565Z,26.31
2023-02-12T08:47:22.486Z,24.15
2023-02-12T08:52:44.315Z,25.48
2023-02-12T08:58:06.214Z,23.48
2023-02-12T09:03:28.376Z,24.61
2023-02-12T09:08:51.560Z,21.57
2023-02-12T09:14:15.524Z,23.19
2023-02-12T09:19:37.381Z,22.53
2023-02-12T09:24:59.239Z,22.01
2023-02-12T09:30:21.315Z,22.16
2023-02-12T09:35:43.357Z,22.25
2023-02-12T09:41:20.360Z,24.08
2023-02-12T09:47:12.515Z,22.82
2023-02-12T09:52:35.555Z,23.38
2023-02-12T09:57:57.765Z,26.64
2023-02-12T10:03:19.624Z,31.42
2023-02-12T10:08:53.720Z,29.71
2023-02-12T10:14:52.969Z,31.20
2023-02-12T10:20:31.652Z,35.33
2023-02-12T10:25:59.878Z,31.89
2023-02-12T10:31:34.229Z,36.32
2023-02-12T10:37:10.373Z,34.62
2023-02-12T10:42:36.762Z,38.48
2023-02-12T10:48:10.200Z,41.21
2023-02-12T10:53:34.616Z,40.82
2023-02-12T10:58:59.656Z,42.08
2023-02-12T11:04:28.319Z,43.30
2023-02-12T11:09:52.547Z,43.64
2023-02-12T11:15:17.694Z,43.18
2023-02-12T11:20:51.048Z,43.68
2023-02-12T11:26:18.640Z,43.66
2023-02-12T11:31:40.863Z,44.91
2023-02-12T11:37:03.452Z,45.29
2023-02-12T11:42:26.617Z,49.52
2023-02-12T11:47:51.137Z,49.30
2023-02-12T11:53:22.406Z,50.59
2023-02-12T11:58:46.572Z,48.97
2023-02-12T12:04:16.399Z,48.72
2023-02-12T12:09:49.693Z,48.87
2023-02-12T12:15:25.126Z,48.68
2023-02-12T12:20:56.531Z,48.97
2023-02-12T12:26:25.724Z,49.35
2023-02-12T12:31:57.825Z,50.10
2023-02-12T12:37:31.101Z,50.82
2023-02-12T12:43:22.104Z,49.91
2023-02-12T12:48:55.237Z,50.63
2023-02-12T12:54:48.121Z,50.66
2023-02-12T13:00:24.280Z,51.06
2023-02-12T13:06:06.449Z,51.69
2023-02-12T13:12:05.640Z,49.82
2023-02-12T13:17:42.742Z,51.35
2023-02-12T13:23:13.508Z,50.90
2023-02-12T13:28:42.292Z,51.79
2023-02-12T13:34:07.860Z,52.34
2023-02-12T13:39:34.812Z,52.93
2023-02-12T13:45:24.249Z,52.76
2023-02-12T13:51:24.240Z,53.14
2023-02-12T13:56:53.803Z,53.50
2023-02-12T14:02:18.683Z,53.83
2023-02-12T14:08:05.212Z,54.91
2023-02-12T14:13:27.153Z,54.38
2023-02-12T14:18:48.996Z,55.13
2023-02-12T14:24:35.974Z,59.37
2023-02-12T14:30:03.808Z,57.76
2023-02-12T14:35:49.137Z,61.27
2023-02-12T14:41:37.279Z,60.48
2023-02-12T14:47:01.555Z,60.70
2023-02-12T14:52:27.340Z,62.51
2023-02-12T14:57:50.051Z,65.05
2023-02-12T15:03:14.583Z,64.73
2023-02-12T15:09:03.095Z,65.42
2023-02-12T15:14:30.904Z,67.55
2023-02-12T15:20:07.687Z,68.54
2023-02-12T15:25:33.422Z,68.02
2023-02-12T15:30:56.959Z,70.03
2023-02-12T15:36:22.548Z,70.43
2023-02-12T15:41:44.479Z,70.26
2023-02-12T15:47:14.888Z,70.40
2023-02-12T15:52:39.640Z,70.64
2023-02-12T15:58:02.122Z,71.58
2023-02-12T16:03:38.279Z,74.05
2023-02-12T16:09:29.826Z,74.00
2023-02-12T16:14:54.498Z,73.68
2023-02-12T16:20:16.364Z,74.02
2023-02-12T16:25:38.340Z,75.14
2023-02-12T16:31:10.128Z,76.16
2023-02-12T16:36:32.464Z,75.52
2023-02-12T16:41:57.188Z,76.02
2023-02-12T16:47:24.686Z,76.72
2023-02-12T16:52:46.577Z,77.09
2023-02-12T16:58:09.026Z,77.62
2023-02-12T17:03:31.529Z,77.24
2023-02-12T17:08:53.634Z,78.98
2023-02-12T17:14:18.325Z,78.27
2023-02-12T17:19:40.464Z,80.19
2023-02-12T17:25:02.357Z,79.24
2023-02-12T17:30:24.473Z,80.19
2023-02-12T17:35:47.211Z,82.15
2023-02-12T17:41:11.015Z,80.94
2023-02-12T17:46:33.247Z,81.30
2023-02-12T17:51:55.151Z,81.88
2023-02-12T17:57:17.370Z,83.06
2023-02-12T18:02:39.580Z,83.46
2023-02-12T18:08:01.917Z,84.37
2023-02-12T18:13:24.666Z,85.15
2023-02-12T18:18:46.621Z,84.49
2023-02-12T18:24:08.885Z,84.64
2023-02-12T18:29:31.055Z,86.04
2023-02-12T18:34:53.037Z,85.26
2023-02-12T18:40:15.724Z,85.62
2023-02-12T18:45:39.878Z,85.54
2023-02-12T18:51:03.337Z,85.28
2023-02-12T18:56:25.204Z,86.03
2023-02-12T19:01:47.653Z,86.59
2023-02-12T19:07:09.653Z,86.93
2023-02-12T19:12:33.450Z,86.09
2023-02-12T19:18:01.820Z,86.58
2023-02-12T19:23:24.095Z,88.01
2023-02-12T19:28:46.576Z,88.32
2023-02-12T19:34:13.474Z,87.96
2023-02-12T19:39:35.448Z,90.17
2023-02-12T19:44:57.299Z,90.88
2023-02-12T19:50:19.294Z,92.69
2023-02-12T19:55:41.652Z,92.53
2023-02-12T20:01:15.407Z,91.54
2023-02-12T20:06:38.627Z,92.58
2023-02-12T20:12:00.740Z,92.87
2023-02-12T20:17:23.102Z,93.26
2023-02-12T20:22:45.164Z,92.41
2023-02-12T20:28:07.147Z,93.77
2023-02-12T20:33:29.077Z,93.31
2023-02-12T20:38:54.016Z,93.50
2023-02-12T20:44:18.956Z,95.03
2023-02-12T20:49:40.942Z,95.89
2023-02-12T20:55:03.087Z,94.96
2023-02-12T21:00:25.061Z,97.00
2023-02-12T21:05:47.022Z,96.38
2023-02-12T21:11:14.868Z,96.12
2023-02-12T21:16:39.271Z,97.71
2023-02-12T21:22:01.157Z,96.54
2023-02-12T21:27:23.201Z,99.65
2023-02-12T21:32:45.057Z,100.00
2023-02-12T21:38:06.959Z,100.00
2023-02-12T21:43:29.113Z,100.00
2023-02-12T21:48:51.302Z,100.00
2023-02-12T21:54:15.375Z,100.00
2023-02-12T21:59:37.270Z,100.00
2023-02-12T22:04:59.111Z,100.00
2023-02-12T22:10:21.000Z,100.00
2023-02-12T22:15:42.891Z,100.00
2023-02-12T22:21:06.578Z,100.00
2023-02-12T22:26:30.330Z,100.00
2023-02-12T22:31:52.372Z,100.00
2023-02-12T22:37:14.292Z,100.00
2023-02-12T22:42:36.569Z,100.00
2023-02-12T22:47:58.496Z,100.00
2023-02-12T22:53:21.039Z,100.00
2023-02-12T22:58:42.876Z,100.00
2023-02-12T23:04:04.895Z,100.00
2023-02-12T23:09:26.935Z,100.00
2023-02-12T23:14:48.793Z,100.00
2023-02-12T23:20:13.924Z,100.00
2023-02-12T23:25:35.839Z,100.00
2023-02-12T23:30:58.596Z,100.00
2023-02-12T23:36:20.873Z,100.00
2023-02-12T23:41:42.781Z,100.00
2023-02-12T23:47:05.257Z,100.00
2023-02-12T23:52:27.198Z,100.00
2023-02-12T23:57:49.298Z,100.00
